createdAt,value
2023-01-13T00:02:31.959Z,9.20
2023-01-13T00:05:06.235Z,9.20
2023-01-13T00:07:43.644Z,9.20
2023-01-13T00:10:17.716Z,9.20
2023-01-13T00:12:52.483Z,9.20
2023-01-13T00:15:26.549Z,9.20
2023-01-13T00:18:00.653Z,9.20
2023-01-13T00:20:34.291Z,9.20
2023-01-13T00:23:08.205Z,9.20
2023-01-13T00:25:41.588Z,9.20
2023-01-13T00:28:15.479Z,9.20
2023-01-13T00:30:49.451Z,9.20
2023-01-13T00:33:23.300Z,9.20
2023-01-13T00:35:59.078Z,9.20
2023-01-13T00:38:34.397Z,9.20
2023-01-13T00:41:11.058Z,9.20
2023-01-13T00:43:46.715Z,9.20
2023-01-13T00:46:22.034Z,9.20
2023-01-13T00:48:56.097Z,9.20
2023-01-13T00:51:30.045Z,9.20
2023-01-13T00:54:04.107Z,9.20
2023-01-13T00:56:40.811Z,9.20
2023-01-13T00:59:15.446Z,9.20
2023-01-13T01:01:49.332Z,9.20
2023-01-13T01:04:23.219Z,9.20
2023-01-13T01:06:56.796Z,9.20
2023-01-13T01:09:34.824Z,9.20
2023-01-13T01:12:08.783Z,9.20
2023-01-13T01:14:42.764Z,9.20
2023-01-13T01:17:17.106Z,9.30
2023-01-13T01:19:51.091Z,9.30
2023-01-13T01:22:24.906Z,9.30
2023-01-13T01:24:59.182Z,9.30
2023-01-13T01:27:33.194Z,9.30
2023-01-13T01:30:07.385Z,9.30
2023-01-13T01:32:41.312Z,9.30
2023-01-13T01:35:15.458Z,9.30
2023-01-13T01:37:49.427Z,9.30
2023-01-13T01:40:23.098Z,9.30
2023-01-13T01:43:15.175Z,9.30
2023-01-13T01:45:48.978Z,9.30
2023-01-13T01:48:22.920Z,9.30
2023-01-13T01:50:57.311Z,9.30
2023-01-13T01:53:33.373Z,9.30
2023-01-13T01:56:08.740Z,9.30
2023-01-13T01:58:47.970Z,9.30
2023-01-13T02:01:22.055Z,9.30
2023-01-13T02:04:01.548Z,9.30
2023-01-13T02:06:34.511Z,9.30
2023-01-13T02:09:08.138Z,9.30
2023-01-13T02:11:59.572Z,9.30
2023-01-13T02:14:34.137Z,9.30
2023-01-13T02:17:26.003Z,9.30
2023-01-13T02:20:26.727Z,9.30
2023-01-13T02:23:56.530Z,9.30
2023-01-13T02:27:07.234Z,9.30
2023-01-13T02:30:21.121Z,9.30
2023-01-13T02:33:28.422Z,9.30
2023-01-13T02:36:05.642Z,9.30
2023-01-13T02:38:51.320Z,9.40
2023-01-13T02:42:10.120Z,9.30
2023-01-13T02:44:49.207Z,9.40
2023-01-13T02:47:26.757Z,9.40
2023-01-13T02:50:09.144Z,9.40
2023-01-13T02:53:14.395Z,9.40
2023-01-13T02:55:51.688Z,9.40
2023-01-13T02:58:29.821Z,9.40
2023-01-13T03:01:03.178Z,9.40
2023-01-13T03:03:38.613Z,9.40
2023-01-13T03:06:32.956Z,9.40
2023-01-13T03:09:23.216Z,9.40
2023-01-13T03:12:19.049Z,9.40
2023-01-13T03:15:22.605Z,9.40
2023-01-13T03:18:20.890Z,9.40
2023-01-13T03:21:23.553Z,9.40
2023-01-13T03:24:23.147Z,9.40
2023-01-13T03:27:02.826Z,9.40
2023-01-13T03:29:46.324Z,9.40
2023-01-13T03:32:23.708Z,9.20
2023-01-13T03:35:03.525Z,9.00
2023-01-13T03:37:41.051Z,8.80
2023-01-13T03:40:40.876Z,8.70
2023-01-13T03:43:39.630Z,8.60
2023-01-13T03:46:52.381Z,8.60
2023-01-13T03:49:49.273Z,8.60
2023-01-13T03:52:44.103Z,8.50
2023-01-13T03:55:26.182Z,8.50
2023-01-13T03:58:21.832Z,8.50
2023-01-13T04:01:11.059Z,8.50
2023-01-13T04:03:49.078Z,8.50
2023-01-13T04:06:46.047Z,8.50
2023-01-13T04:09:54.660Z,8.50
2023-01-13T04:13:02.755Z,8.50
2023-01-13T04:15:47.870Z,8.40
2023-01-13T04:18:26.199Z,8.40
2023-01-13T04:21:02.142Z,8.20
2023-01-13T04:23:36.167Z,8.20
2023-01-13T04:26:10.373Z,8.20
2023-01-13T04:28:44.385Z,8.20
2023-01-13T04:31:18.699Z,8.10
2023-01-13T04:33:52.197Z,8.10
2023-01-13T04:36:28.021Z,8.00
2023-01-13T04:39:02.933Z,8.00
2023-01-13T04:41:54.936Z,8.00
2023-01-13T04:44:31.488Z,7.90
2023-01-13T04:47:04.939Z,7.90
2023-01-13T04:49:39.291Z,7.90
2023-01-13T04:52:13.387Z,7.90
2023-01-13T04:54:46.615Z,7.80
2023-01-13T04:57:19.449Z,7.80
2023-01-13T04:59:52.504Z,7.70
2023-01-13T05:02:25.859Z,7.70
2023-01-13T05:05:02.882Z,7.70
2023-01-13T05:07:42.581Z,7.60
2023-01-13T05:10:16.774Z,7.60
2023-01-13T05:13:08.456Z,7.60
2023-01-13T05:16:01.997Z,7.60
2023-01-13T05:18:35.854Z,7.60
2023-01-13T05:21:29.293Z,7.50
2023-01-13T05:24:21.560Z,7.50
2023-01-13T05:26:55.541Z,7.50
2023-01-13T05:29:29.779Z,7.50
2023-01-13T05:32:04.787Z,7.50
2023-01-13T05:34:38.477Z,7.50
2023-01-13T05:37:13.321Z,7.40
2023-01-13T05:40:05.553Z,7.40
2023-01-13T05:42:58.454Z,7.40
2023-01-13T05:45:33.238Z,7.40
2023-01-13T05:48:07.776Z,7.40
2023-01-13T05:50:49.686Z,7.40
2023-01-13T05:53:24.445Z,7.40
2023-01-13T05:55:58.524Z,7.40
2023-01-13T05:58:31.830Z,7.50
2023-01-13T06:01:08.248Z,7.40
2023-01-13T06:03:42.096Z,7.50
2023-01-13T06:06:16.218Z,7.40
2023-01-13T06:08:50.080Z,7.40
2023-01-13T06:11:24.028Z,7.40
2023-01-13T06:13:57.975Z,7.40
2023-01-13T06:16:31.661Z,7.50
2023-01-13T06:19:09.124Z,7.50
2023-01-13T06:21:45.093Z,7.50
2023-01-13T06:24:18.479Z,7.60
2023-01-13T06:26:51.918Z,7.60
2023-01-13T06:29:25.434Z,7.60
2023-01-13T06:31:59.307Z,7.70
2023-01-13T06:34:32.660Z,7.70
2023-01-13T06:37:06.943Z,7.70
2023-01-13T06:39:41.591Z,7.70
2023-01-13T06:42:34.541Z,7.80
2023-01-13T06:45:07.810Z,7.70
2023-01-13T06:47:41.223Z,7.80
2023-01-13T06:50:13.978Z,7.80
2023-01-13T06:52:47.280Z,7.80
2023-01-13T06:55:19.961Z,7.80
2023-01-13T06:57:54.925Z,7.80
2023-01-13T07:00:28.359Z,7.80
2023-01-13T07:03:11.870Z,7.90
2023-01-13T07:05:52.319Z,7.80
2023-01-13T07:08:25.144Z,7.80
2023-01-13T07:10:57.974Z,7.80
2023-01-13T07:13:49.272Z,7.80
2023-01-13T07:16:24.096Z,7.80
2023-01-13T07:18:56.850Z,7.70
2023-01-13T07:21:29.550Z,7.80
2023-01-13T07:24:02.253Z,7.80
2023-01-13T07:26:34.894Z,7.70
2023-01-13T07:29:07.582Z,7.70
2023-01-13T07:31:40.411Z,7.70
2023-01-13T07:34:13.061Z,7.70
2023-01-13T07:36:45.760Z,7.70
2023-01-13T07:39:18.559Z,7.70
2023-01-13T07:42:11.401Z,7.60
2023-01-13T07:44:45.520Z,7.60
2023-01-13T07:47:19.703Z,7.60
2023-01-13T07:49:52.373Z,7.60
2023-01-13T07:52:25.022Z,7.50
2023-01-13T07:54:57.933Z,7.50
2023-01-13T07:57:30.650Z,7.60
2023-01-13T08:00:05.318Z,7.60
2023-01-13T08:02:37.979Z,7.60
2023-01-13T08:05:10.809Z,7.70
2023-01-13T08:07:44.018Z,7.70
2023-01-13T08:10:16.927Z,7.70
2023-01-13T08:13:08.128Z,7.80
2023-01-13T08:15:40.843Z,7.80
2023-01-13T08:18:14.342Z,7.80
2023-01-13T08:20:48.648Z,7.80
2023-01-13T08:23:22.763Z,7.90
2023-01-13T08:26:00.123Z,7.90
2023-01-13T08:28:33.220Z,7.80
2023-01-13T08:31:09.754Z,7.90
2023-01-13T08:33:42.608Z,7.80
2023-01-13T08:36:15.331Z,7.80
2023-01-13T08:38:48.121Z,7.80
2023-01-13T08:41:40.904Z,7.70
2023-01-13T08:44:13.730Z,7.70
2023-01-13T08:46:46.549Z,7.70
2023-01-13T08:49:19.528Z,7.70
2023-01-13T08:51:53.189Z,7.70
2023-01-13T08:54:26.057Z,7.70
2023-01-13T08:56:58.833Z,7.70
2023-01-13T08:59:31.696Z,7.80
2023-01-13T09:02:14.212Z,7.80
2023-01-13T09:04:47.620Z,7.80
2023-01-13T09:07:21.047Z,7.80
2023-01-13T09:09:53.794Z,7.90
2023-01-13T09:12:45.247Z,7.90
2023-01-13T09:15:21.734Z,7.90
2023-01-13T09:17:54.507Z,7.90
2023-01-13T09:20:27.187Z,7.90
2023-01-13T09:22:59.985Z,7.90
2023-01-13T09:25:32.807Z,7.90
2023-01-13T09:28:06.055Z,8.00
2023-01-13T09:30:38.728Z,8.00
2023-01-13T09:33:30.093Z,8.00
2023-01-13T09:36:03.036Z,8.00
2023-01-13T09:38:35.722Z,8.00
2023-01-13T09:41:39.754Z,8.00
2023-01-13T09:44:19.869Z,8.00
2023-01-13T09:47:06.894Z,8.00
2023-01-13T09:49:42.430Z,8.10
2023-01-13T09:52:31.869Z,8.10
2023-01-13T09:55:36.795Z,8.10
2023-01-13T09:58:16.751Z,8.10
2023-01-13T10:01:00.063Z,8.10
2023-01-13T10:03:35.116Z,8.10
2023-01-13T10:06:23.688Z,8.10
2023-01-13T10:08:57.912Z,8.20
2023-01-13T10:11:55.154Z,8.20
2023-01-13T10:14:45.581Z,8.20
2023-01-13T10:17:35.098Z,8.30
2023-01-13T10:20:20.695Z,8.40
2023-01-13T10:23:14.377Z,8.40
2023-01-13T10:26:00.749Z,8.50
2023-01-13T10:28:33.424Z,8.40
2023-01-13T10:31:14.543Z,8.40
2023-01-13T10:33:47.490Z,8.40
2023-01-13T10:36:21.483Z,8.40
2023-01-13T10:39:08.341Z,8.40
2023-01-13T10:41:41.155Z,8.50
2023-01-13T10:44:18.580Z,8.60
2023-01-13T10:46:54.130Z,8.60
2023-01-13T10:49:36.232Z,8.70
2023-01-13T10:52:27.051Z,8.70
2023-01-13T10:55:00.949Z,8.70
2023-01-13T10:57:36.633Z,8.70
2023-01-13T11:00:32.800Z,8.70
2023-01-13T11:03:25.033Z,8.60
2023-01-13T11:06:00.148Z,8.50
2023-01-13T11:08:45.768Z,8.40
2023-01-13T11:11:41.695Z,8.40
2023-01-13T11:14:39.735Z,8.40
2023-01-13T11:17:30.857Z,8.40
2023-01-13T11:20:12.097Z,8.20
2023-01-13T11:22:51.184Z,8.20
2023-01-13T11:25:35.076Z,8.20
2023-01-13T11:28:35.826Z,8.20
2023-01-13T11:31:13.134Z,8.30
2023-01-13T11:34:03.372Z,8.30
2023-01-13T11:36:43.735Z,8.30
2023-01-13T11:39:20.561Z,8.30
2023-01-13T11:42:36.726Z,8.20
2023-01-13T11:45:34.312Z,8.20
2023-01-13T11:48:15.081Z,8.20
2023-01-13T11:50:59.181Z,8.20
2023-01-13T11:53:58.106Z,8.40
2023-01-13T11:56:55.925Z,8.40
2023-01-13T11:59:56.662Z,8.50
2023-01-13T12:03:07.251Z,8.60
2023-01-13T12:05:58.519Z,8.60
2023-01-13T12:08:41.226Z,8.50
2023-01-13T12:11:21.262Z,8.60
2023-01-13T12:14:20.040Z,8.60
2023-01-13T12:16:52.751Z,8.70
2023-01-13T12:19:30.479Z,8.80
2023-01-13T12:22:10.799Z,8.80
2023-01-13T12:25:00.170Z,8.80
2023-01-13T12:27:56.024Z,8.80
2023-01-13T12:30:56.067Z,8.80
2023-01-13T12:33:50.368Z,8.80
2023-01-13T12:36:44.370Z,8.90
2023-01-13T12:39:38.892Z,8.90
2023-01-13T12:43:07.569Z,8.80
2023-01-13T12:45:40.570Z,8.90
2023-01-13T12:48:45.666Z,9.00
2023-01-13T12:51:58.267Z,9.00
2023-01-13T12:54:37.334Z,9.00
2023-01-13T12:57:32.978Z,9.10
2023-01-13T13:00:06.616Z,9.10
2023-01-13T13:02:42.368Z,9.20
2023-01-13T13:05:15.353Z,9.20
2023-01-13T13:08:06.783Z,9.20
2023-01-13T13:10:47.443Z,9.10
2023-01-13T13:13:41.104Z,9.00
2023-01-13T13:16:26.198Z,9.20
2023-01-13T13:19:17.931Z,9.50
2023-01-13T13:22:12.633Z,9.50
2023-01-13T13:24:51.569Z,9.60
2023-01-13T13:28:01.077Z,9.70
2023-01-13T13:30:37.149Z,9.60
2023-01-13T13:33:15.717Z,9.50
2023-01-13T13:36:13.287Z,9.50
2023-01-13T13:39:42.188Z,9.40
2023-01-13T13:42:39.067Z,9.30
2023-01-13T13:45:42.470Z,9.30
2023-01-13T13:48:19.452Z,9.30
2023-01-13T13:51:00.607Z,9.20
2023-01-13T13:53:35.993Z,9.10
2023-01-13T13:56:25.758Z,9.10
2023-01-13T13:58:58.683Z,9.00
2023-01-13T14:01:40.943Z,8.90
2023-01-13T14:04:21.281Z,8.90
2023-01-13T14:07:04.830Z,8.80
2023-01-13T14:09:44.669Z,8.70
2023-01-13T14:12:23.404Z,8.60
2023-01-13T14:14:57.420Z,8.50
2023-01-13T14:17:30.944Z,8.30
2023-01-13T14:20:08.449Z,8.30
2023-01-13T14:22:50.569Z,8.30
2023-01-13T14:25:28.898Z,8.30
2023-01-13T14:28:32.248Z,8.20
2023-01-13T14:31:07.300Z,8.20
2023-01-13T14:33:45.185Z,8.20
2023-01-13T14:36:23.920Z,8.30
2023-01-13T14:39:05.688Z,8.20
2023-01-13T14:41:47.454Z,8.20
2023-01-13T14:44:37.140Z,8.20
2023-01-13T14:47:24.614Z,8.20
2023-01-13T14:50:16.160Z,8.20
2023-01-13T14:52:52.505Z,8.20
2023-01-13T14:55:34.280Z,8.20
2023-01-13T14:58:22.365Z,8.30
2023-01-13T15:01:28.775Z,8.30
2023-01-13T15:04:27.661Z,8.30
2023-01-13T15:07:01.205Z,8.40
2023-01-13T15:09:41.376Z,8.40
2023-01-13T15:12:29.412Z,8.40
2023-01-13T15:15:28.583Z,8.40
2023-01-13T15:18:09.982Z,8.30
2023-01-13T15:20:43.367Z,8.30
2023-01-13T15:23:17.742Z,8.20
2023-01-13T15:25:50.681Z,8.20
2023-01-13T15:28:26.367Z,8.10
2023-01-13T15:31:01.553Z,8.10
2023-01-13T15:33:34.311Z,8.10
2023-01-13T15:36:25.987Z,8.10
2023-01-13T15:39:00.105Z,8.10
2023-01-13T15:41:51.665Z,8.20
2023-01-13T15:44:46.522Z,8.20
2023-01-13T15:47:22.406Z,8.20
2023-01-13T15:49:55.333Z,8.20
2023-01-13T15:52:28.483Z,8.20
2023-01-13T15:55:01.277Z,8.20
2023-01-13T15:57:37.897Z,8.10
2023-01-13T16:00:18.090Z,8.20
2023-01-13T16:02:51.512Z,8.10
2023-01-13T16:05:25.119Z,8.10
2023-01-13T16:07:58.541Z,8.10
2023-01-13T16:10:31.286Z,8.00
2023-01-13T16:13:03.972Z,7.90
2023-01-13T16:15:38.420Z,7.80
2023-01-13T16:18:18.255Z,7.70
2023-01-13T16:20:55.344Z,7.60
2023-01-13T16:23:28.464Z,7.60
2023-01-13T16:26:04.446Z,7.50
2023-01-13T16:28:38.281Z,7.40
2023-01-13T16:31:24.632Z,7.40
2023-01-13T16:34:00.217Z,7.30
2023-01-13T16:36:37.530Z,7.20
2023-01-13T16:39:29.080Z,7.10
2023-01-13T16:42:02.455Z,7.10
2023-01-13T16:44:35.736Z,7.00
2023-01-13T16:47:16.607Z,6.90
2023-01-13T16:49:49.435Z,6.90
2023-01-13T16:52:24.213Z,6.80
2023-01-13T16:54:56.966Z,6.80
2023-01-13T16:57:29.650Z,6.90
2023-01-13T17:00:02.536Z,6.90
2023-01-13T17:02:35.256Z,6.90
2023-01-13T17:05:12.259Z,6.90
2023-01-13T17:07:46.390Z,6.90
2023-01-13T17:10:22.601Z,6.90
2023-01-13T17:12:56.053Z,6.90
2023-01-13T17:15:28.881Z,7.00
2023-01-13T17:18:02.124Z,7.00
2023-01-13T17:20:34.813Z,7.00
2023-01-13T17:23:07.652Z,7.00
2023-01-13T17:25:40.340Z,7.00
2023-01-13T17:28:13.690Z,7.10
2023-01-13T17:30:46.439Z,7.10
2023-01-13T17:33:19.120Z,7.00
2023-01-13T17:35:51.856Z,7.10
2023-01-13T17:38:24.524Z,7.10
2023-01-13T17:41:02.680Z,7.10
2023-01-13T17:43:35.402Z,7.10
2023-01-13T17:46:10.240Z,7.10
2023-01-13T17:48:42.954Z,7.10
2023-01-13T17:51:17.216Z,7.20
2023-01-13T17:53:49.886Z,7.20
2023-01-13T17:56:24.610Z,7.20
2023-01-13T17:58:58.270Z,7.20
2023-01-13T18:01:33.040Z,7.20
2023-01-13T18:04:06.775Z,7.10
2023-01-13T18:06:39.588Z,7.10
2023-01-13T18:09:12.713Z,7.20
2023-01-13T18:11:47.342Z,7.10
2023-01-13T18:14:22.314Z,7.20
2023-01-13T18:16:55.371Z,7.20
2023-01-13T18:19:46.588Z,7.20
2023-01-13T18:22:37.748Z,7.20
2023-01-13T18:25:31.061Z,7.20
2023-01-13T18:28:04.581Z,7.20
2023-01-13T18:30:37.299Z,7.10
2023-01-13T18:33:10.026Z,7.10
2023-01-13T18:35:42.821Z,7.20
2023-01-13T18:38:21.101Z,7.20
2023-01-13T18:40:53.726Z,7.20
2023-01-13T18:43:26.551Z,7.20
2023-01-13T18:45:59.346Z,7.10
2023-01-13T18:48:32.457Z,7.20
2023-01-13T18:51:05.435Z,7.20
2023-01-13T18:53:38.194Z,7.20
2023-01-13T18:56:12.119Z,7.20
2023-01-13T18:58:51.642Z,7.20
2023-01-13T19:01:27.358Z,7.20
2023-01-13T19:04:04.609Z,7.20
2023-01-13T19:06:40.068Z,7.10
2023-01-13T19:09:12.938Z,7.10
2023-01-13T19:11:48.378Z,7.20
2023-01-13T19:14:34.134Z,7.10
2023-01-13T19:17:13.055Z,7.10
2023-01-13T19:19:48.754Z,7.10
2023-01-13T19:22:28.513Z,7.10
2023-01-13T19:25:02.074Z,7.10
2023-01-13T19:27:34.792Z,7.10
2023-01-13T19:30:08.289Z,7.10
2023-01-13T19:32:41.037Z,7.10
2023-01-13T19:35:17.302Z,7.10
2023-01-13T19:37:50.207Z,7.10
2023-01-13T19:40:22.899Z,7.10
2023-01-13T19:43:14.291Z,7.10
2023-01-13T19:45:47.713Z,7.10
2023-01-13T19:48:21.871Z,7.00
2023-01-13T19:50:55.453Z,7.00
2023-01-13T19:53:29.772Z,7.00
2023-01-13T19:56:03.907Z,6.90
2023-01-13T19:58:36.995Z,6.90
2023-01-13T20:01:11.851Z,6.90
2023-01-13T20:03:46.213Z,6.90
2023-01-13T20:06:19.025Z,6.90
2023-01-13T20:08:51.783Z,6.90
2023-01-13T20:11:30.984Z,6.80
2023-01-13T20:14:04.070Z,6.80
2023-01-13T20:16:37.069Z,6.80
2023-01-13T20:19:09.847Z,6.70
2023-01-13T20:21:43.396Z,6.70
2023-01-13T20:24:17.633Z,6.70
2023-01-13T20:26:50.391Z,6.70
2023-01-13T20:29:23.226Z,6.70
2023-01-13T20:31:56.065Z,6.60
2023-01-13T20:34:28.833Z,6.60
2023-01-13T20:37:01.671Z,6.60
2023-01-13T20:39:35.937Z,6.60
2023-01-13T20:42:28.152Z,6.60
2023-01-13T20:45:01.189Z,6.50
2023-01-13T20:47:33.929Z,6.50
2023-01-13T20:50:10.581Z,6.60
2023-01-13T20:52:43.380Z,6.60
2023-01-13T20:55:16.313Z,6.60
2023-01-13T20:57:50.005Z,6.70
2023-01-13T21:00:22.678Z,6.70
2023-01-13T21:02:56.010Z,6.70
2023-01-13T21:05:29.433Z,6.70
2023-01-13T21:08:02.555Z,6.70
2023-01-13T21:10:35.312Z,6.70
2023-01-13T21:13:29.643Z,6.70
2023-01-13T21:16:02.535Z,6.70
2023-01-13T21:18:53.786Z,6.80
2023-01-13T21:21:26.601Z,6.80
2023-01-13T21:23:59.399Z,6.80
2023-01-13T21:26:33.434Z,6.80
2023-01-13T21:29:06.636Z,6.80
2023-01-13T21:31:39.432Z,6.90
2023-01-13T21:34:12.174Z,6.90
2023-01-13T21:36:44.896Z,6.90
2023-01-13T21:39:17.527Z,6.90
2023-01-13T21:42:08.672Z,6.90
2023-01-13T21:44:59.813Z,6.90
2023-01-13T21:47:48.615Z,7.00
2023-01-13T21:50:26.604Z,7.00
2023-01-13T21:52:59.597Z,7.00
2023-01-13T21:55:32.888Z,7.00
2023-01-13T21:58:13.867Z,7.00
2023-01-13T22:00:49.192Z,7.00
2023-01-13T22:03:22.185Z,7.10
2023-01-13T22:05:55.853Z,7.00
2023-01-13T22:08:28.568Z,7.10
2023-01-13T22:11:02.824Z,7.10
2023-01-13T22:13:54.106Z,7.10
2023-01-13T22:16:27.458Z,7.10
2023-01-13T22:19:00.179Z,7.10
2023-01-13T22:21:32.967Z,7.10
2023-01-13T22:24:06.003Z,7.00
2023-01-13T22:26:39.091Z,7.10
2023-01-13T22:29:11.763Z,7.00
2023-01-13T22:31:44.545Z,7.00
2023-01-13T22:34:17.287Z,7.00
2023-01-13T22:36:50.003Z,7.00
2023-01-13T22:39:22.659Z,7.00
2023-01-13T22:41:55.517Z,7.00
2023-01-13T22:44:28.398Z,7.00
2023-01-13T22:47:01.078Z,7.00
2023-01-13T22:49:33.806Z,6.90
2023-01-13T22:52:06.975Z,6.80
2023-01-13T22:54:39.729Z,6.80
2023-01-13T22:57:12.657Z,6.80
2023-01-13T22:59:45.383Z,6.80
2023-01-13T23:02:18.093Z,6.80
2023-01-13T23:04:50.812Z,6.70
2023-01-13T23:07:23.577Z,6.70
2023-01-13T23:09:56.286Z,6.70
2023-01-13T23:12:29.030Z,6.70
2023-01-13T23:15:01.710Z,6.70
2023-01-13T23:17:34.401Z,6.60
2023-01-13T23:20:07.445Z,6.60
2023-01-13T23:22:40.721Z,6.60
2023-01-13T23:25:13.403Z,6.60
2023-01-13T23:27:46.192Z,6.60
2023-01-13T23:30:19.028Z,6.60
2023-01-13T23:32:51.699Z,6.50
2023-01-13T23:35:25.028Z,6.50
2023-01-13T23:37:57.804Z,6.50
2023-01-13T23:40:30.513Z,6.50
2023-01-13T23:43:03.234Z,6.50
2023-01-13T23:45:35.999Z,6.50
2023-01-13T23:48:09.071Z,6.50
2023-01-13T23:50:42.322Z,6.50
2023-01-13T23:53:14.970Z,6.50
2023-01-13T23:55:47.709Z,6.50
2023-01-13T23:58:20.368Z,6.50
